Mariann — LAGW6 — position and weather

sailwx.info

Track history (hours):
 
Tides and Currents Weather Stations Pressure Air Temp Water Temp Dewpoint Dewpoint Depression Visibility Wind Speed Wind Dir Waves Ship Positions

Mariann

Last reported at 2017-Nov-17 05:47 UTC. Time now 2017-Nov-18 01:21 UTC.
Position N 36°01' W 005°10'.

Length 228 m; draft 13.1 m.

Type: Ship (hazmat cat B). MMSI: 257917000.

Date/timePositionNaut miles runAvg speedWind from/ knotsBaromVisibWave heightAir tempDewpointWater temp
2017-Nov-17 05:47N 36°01' W 005°10'414.6
2017-Nov-17 05:30N 36°01' W 005°15'714.5
2017-Nov-17 05:00N 35°58' W 005°24'18514.5
2017-Nov-16 16:14N 36°27' W 009°10'314.5
2017-Nov-16 16:00N 36°28' W 009°14'1814.2
2017-Nov-16 14:41N 36°40' W 009°31'614.9
2017-Nov-16 14:17N 36°45' W 009°36'1814.4
2017-Nov-16 13:04N 37°02' W 009°43'114.3
2017-Nov-16 13:00N 37°03' W 009°43'1014.4
2017-Nov-16 12:17N 37°13' W 009°46'414.5
2017-Nov-16 12:00N 37°17' W 009°47'714.5
2017-Nov-16 11:30N 37°24' W 009°49'714.6
2017-Nov-16 11:00N 37°31' W 009°51'714.6
2017-Nov-16 10:31N 37°38' W 009°53'714.6
2017-Nov-16 10:00N 37°45' W 009°55'814.9
2017-Nov-16 09:30N 37°52' W 009°57'715.0
2017-Nov-16 09:00N 37°60' W 009°59'815.0
2017-Nov-16 08:30N 38°07' W 010°02'714.8
2017-Nov-16 08:00N 38°14' W 010°04'714.9
2017-Nov-16 07:30N 38°21' W 010°06'714.8
2017-Nov-16 07:00N 38°29' W 010°08'714.6
2017-Nov-16 06:30N 38°36' W 010°10'714.2
2017-Nov-16 06:00N 38°43' W 010°12'714.3
2017-Nov-16 05:30N 38°50' W 010°11'715.0
2017-Nov-16 05:00N 38°57' W 010°12'714.9
2017-Nov-16 04:30N 39°05' W 010°12'714.3
2017-Nov-16 04:00N 39°12' W 010°11'714.7
2017-Nov-16 03:30N 39°19' W 010°12'714.3
2017-Nov-16 03:00N 39°26' W 010°11'56714.0
2017-Nov-14 10:32N 48°27' W 006°10'413.3
2017-Nov-14 10:12N 48°30' W 006°07'313.6
2017-Nov-14 09:58N 48°33' W 006°05'813.7
2017-Nov-14 09:25N 48°40' W 005°60'714.0
2017-Nov-14 08:54N 48°46' W 005°55'714.2
2017-Nov-14 08:26N 48°52' W 005°50'614.0
2017-Nov-14 07:59N 48°57' W 005°43'814.7
2017-Nov-14 07:25N 49°01' W 005°32'914.4
2017-Nov-14 06:49N 49°05' W 005°20'713.0
2017-Nov-14 06:15N 49°09' W 005°11'513.5
2017-Nov-14 05:55N 49°11' W 005°05'4913.9
2017-Nov-14 02:22N 49°35' W 003°59'513.1
2017-Nov-14 01:59N 49°38' W 003°52'713.1
2017-Nov-14 01:26N 49°41' W 003°43'1913.8
2017-Nov-14 00:04N 49°51' W 003°17'114.7
2017-Nov-14 00:01N 49°51' W 003°16'814.9
2017-Nov-13 23:28N 49°55' W 003°05'1015.5
2017-Nov-13 22:51N 49°59' W 002°52'616.0
2017-Nov-13 22:28N 50°01' W 002°42'56612.6
2017-Nov-12 01:39N 57°03' E 007°52'212.9
2017-Nov-12 01:28N 57°05' E 007°55'612.8
2017-Nov-12 01:00N 57°10' E 008°00'612.4
2017-Nov-12 00:29N 57°14' E 008°09'712.3
2017-Nov-11 23:57N 57°18' E 008°19'7912.0
2017-Nov-11 17:22N 57°48' E 010°35'512.0
2017-Nov-11 16:57N 57°48' E 010°45'4 9.4
2017-Nov-11 16:30N 57°44' E 010°46'510.2
2017-Nov-11 16:00N 57°40' E 010°41'1 0.6
2017-Nov-11 13:35N 57°39' E 010°39'0 0.0
2017-Nov-11 06:26N 57°39' E 010°39'0 0.0
2017-Nov-11 05:55N 57°39' E 010°39'0 0.0
2017-Nov-10 23:28N 57°39' E 010°39'1 2.0
2017-Nov-10 22:54N 57°38' E 010°40'4 7.5
2017-Nov-10 22:20N 57°36' E 010°47'412.4
2017-Nov-10 22:00N 57°35' E 010°55'712.7
2017-Nov-10 21:26N 57°33' E 011°08'612.8
2017-Nov-10 20:57N 57°31' E 011°19'612.9
2017-Nov-10 20:30N 57°27' E 011°27'913.3
2017-Nov-10 19:51N 57°19' E 011°33'1013.9
2017-Nov-10 19:09N 57°10' E 011°38'11012.2
2017-Nov-10 10:04N 55°21' E 011°02'412.7
2017-Nov-10 09:46N 55°17' E 011°04'312.8
2017-Nov-10 09:29N 55°14' E 011°06'611.9
2017-Nov-10 09:00N 55°09' E 010°60'612.9
2017-Nov-10 08:30N 55°03' E 011°00'611.8
2017-Nov-10 08:00N 54°58' E 010°56'611.7
2017-Nov-10 07:30N 54°53' E 010°50'611.6
2017-Nov-10 07:00N 54°47' E 010°49'612.1
2017-Nov-10 06:30N 54°41' E 010°47'612.7
2017-Nov-10 06:00N 54°37' E 010°56'612.6
2017-Nov-10 05:30N 54°36' E 011°06'613.1
2017-Nov-10 05:00N 54°35' E 011°17'713.1
2017-Nov-10 04:30N 54°32' E 011°27'713.1
2017-Nov-10 04:00N 54°29' E 011°37'713.0
2017-Nov-10 03:29N 54°26' E 011°48'612.8
2017-Nov-10 03:00N 54°26' E 011°59'712.3
2017-Nov-10 02:28N 54°26' E 012°10'6312.0
2017-Nov-09 21:15N 55°00' E 013°42'412.8
2017-Nov-09 20:58N 55°01' E 013°48'912.6
2017-Nov-09 20:16N 55°05' E 014°02'312.5
2017-Nov-09 20:00N 55°06' E 014°07'612.2
2017-Nov-09 19:30N 55°07' E 014°18'612.4
2017-Nov-09 19:00N 55°11' E 014°26'712.2
2017-Nov-09 18:28N 55°15' E 014°35'612.4
2017-Nov-09 18:00N 55°19' E 014°42'5 9.3
2017-Nov-09 17:30N 55°18' E 014°50'612.4
2017-Nov-09 17:00N 55°21' E 015°00'713.6
2017-Nov-09 16:29N 55°24' E 015°12'613.7
2017-Nov-09 16:00N 55°27' E 015°22'1313.8
2017-Nov-09 15:04N 55°32' E 015°42'113.8
2017-Nov-09 15:00N 55°32' E 015°44'713.7
2017-Nov-09 14:30N 55°35' E 015°55'713.7
2017-Nov-09 14:00N 55°38' E 016°06'713.6
2017-Nov-09 13:30N 55°41' E 016°17'32313.4
2017-Nov-08 13:19N 59°37' E 023°11'413.8
2017-Nov-08 13:00N 59°38' E 023°19'713.8
2017-Nov-08 12:31N 59°40' E 023°32'714.0
2017-Nov-08 12:01N 59°42' E 023°46'713.6
2017-Nov-08 11:30N 59°43' E 023°59'712.2
2017-Nov-08 10:55N 59°45' E 024°13'512.1
2017-Nov-08 10:30N 59°47' E 024°22'612.3
2017-Nov-08 10:00N 59°47' E 024°34'612.3
2017-Nov-08 09:31N 59°48' E 024°46'612.1
2017-Nov-08 09:01N 59°50' E 024°58'612.0
2017-Nov-08 08:30N 59°52' E 025°09'612.0
2017-Nov-08 07:59N 59°53' E 025°22'610.7
2017-Nov-08 07:26N 59°57' E 025°30'511.6
2017-Nov-08 07:00N 60°02' E 025°33'5 9.9
2017-Nov-08 06:29N 60°06' E 025°38'  
Track history (hours):
 
Tides and Currents Weather Stations Pressure Air Temp Water Temp Dewpoint Dewpoint Depression Visibility Wind Speed Wind Dir Waves Ship Positions

Mariann

Last reported at 2017-Nov-17 05:47 UTC. Time now 2017-Nov-18 01:21 UTC.
Position N 36°01' W 005°10'.

Length 228 m; draft 13.1 m.

Type: Ship (hazmat cat B). MMSI: 257917000.

Date/timePositionNaut miles runAvg speedWind from/ knotsBaromVisibWave heightAir tempDewpointWater temp
2017-Nov-17 05:47N 36°01' W 005°10'414.6
2017-Nov-17 05:30N 36°01' W 005°15'714.5
2017-Nov-17 05:00N 35°58' W 005°24'18514.5
2017-Nov-16 16:14N 36°27' W 009°10'314.5
2017-Nov-16 16:00N 36°28' W 009°14'1814.2
2017-Nov-16 14:41N 36°40' W 009°31'614.9
2017-Nov-16 14:17N 36°45' W 009°36'1814.4
2017-Nov-16 13:04N 37°02' W 009°43'114.3
2017-Nov-16 13:00N 37°03' W 009°43'1014.4
2017-Nov-16 12:17N 37°13' W 009°46'414.5
2017-Nov-16 12:00N 37°17' W 009°47'714.5
2017-Nov-16 11:30N 37°24' W 009°49'714.6
2017-Nov-16 11:00N 37°31' W 009°51'714.6
2017-Nov-16 10:31N 37°38' W 009°53'714.6
2017-Nov-16 10:00N 37°45' W 009°55'814.9
2017-Nov-16 09:30N 37°52' W 009°57'715.0
2017-Nov-16 09:00N 37°60' W 009°59'815.0
2017-Nov-16 08:30N 38°07' W 010°02'714.8
2017-Nov-16 08:00N 38°14' W 010°04'714.9
2017-Nov-16 07:30N 38°21' W 010°06'714.8
2017-Nov-16 07:00N 38°29' W 010°08'714.6
2017-Nov-16 06:30N 38°36' W 010°10'714.2
2017-Nov-16 06:00N 38°43' W 010°12'714.3
2017-Nov-16 05:30N 38°50' W 010°11'715.0
2017-Nov-16 05:00N 38°57' W 010°12'714.9
2017-Nov-16 04:30N 39°05' W 010°12'714.3
2017-Nov-16 04:00N 39°12' W 010°11'714.7
2017-Nov-16 03:30N 39°19' W 010°12'714.3
2017-Nov-16 03:00N 39°26' W 010°11'56714.0
2017-Nov-14 10:32N 48°27' W 006°10'413.3
2017-Nov-14 10:12N 48°30' W 006°07'313.6
2017-Nov-14 09:58N 48°33' W 006°05'813.7
2017-Nov-14 09:25N 48°40' W 005°60'714.0
2017-Nov-14 08:54N 48°46' W 005°55'714.2
2017-Nov-14 08:26N 48°52' W 005°50'614.0
2017-Nov-14 07:59N 48°57' W 005°43'814.7
2017-Nov-14 07:25N 49°01' W 005°32'914.4
2017-Nov-14 06:49N 49°05' W 005°20'713.0
2017-Nov-14 06:15N 49°09' W 005°11'513.5
2017-Nov-14 05:55N 49°11' W 005°05'4913.9
2017-Nov-14 02:22N 49°35' W 003°59'513.1
2017-Nov-14 01:59N 49°38' W 003°52'713.1
2017-Nov-14 01:26N 49°41' W 003°43'1913.8
2017-Nov-14 00:04N 49°51' W 003°17'114.7
2017-Nov-14 00:01N 49°51' W 003°16'814.9
2017-Nov-13 23:28N 49°55' W 003°05'1015.5
2017-Nov-13 22:51N 49°59' W 002°52'616.0
2017-Nov-13 22:28N 50°01' W 002°42'56612.6
2017-Nov-12 01:39N 57°03' E 007°52'212.9
2017-Nov-12 01:28N 57°05' E 007°55'612.8
2017-Nov-12 01:00N 57°10' E 008°00'612.4
2017-Nov-12 00:29N 57°14' E 008°09'712.3
2017-Nov-11 23:57N 57°18' E 008°19'7912.0
2017-Nov-11 17:22N 57°48' E 010°35'512.0
2017-Nov-11 16:57N 57°48' E 010°45'4 9.4
2017-Nov-11 16:30N 57°44' E 010°46'510.2
2017-Nov-11 16:00N 57°40' E 010°41'1 0.6
2017-Nov-11 13:35N 57°39' E 010°39'0 0.0
2017-Nov-11 06:26N 57°39' E 010°39'0 0.0
2017-Nov-11 05:55N 57°39' E 010°39'0 0.0
2017-Nov-10 23:28N 57°39' E 010°39'1 2.0
2017-Nov-10 22:54N 57°38' E 010°40'4 7.5
2017-Nov-10 22:20N 57°36' E 010°47'412.4
2017-Nov-10 22:00N 57°35' E 010°55'712.7
2017-Nov-10 21:26N 57°33' E 011°08'612.8
2017-Nov-10 20:57N 57°31' E 011°19'612.9
2017-Nov-10 20:30N 57°27' E 011°27'913.3
2017-Nov-10 19:51N 57°19' E 011°33'1013.9
2017-Nov-10 19:09N 57°10' E 011°38'11012.2
2017-Nov-10 10:04N 55°21' E 011°02'412.7
2017-Nov-10 09:46N 55°17' E 011°04'312.8
2017-Nov-10 09:29N 55°14' E 011°06'611.9
2017-Nov-10 09:00N 55°09' E 010°60'612.9
2017-Nov-10 08:30N 55°03' E 011°00'611.8
2017-Nov-10 08:00N 54°58' E 010°56'611.7
2017-Nov-10 07:30N 54°53' E 010°50'611.6
2017-Nov-10 07:00N 54°47' E 010°49'612.1
2017-Nov-10 06:30N 54°41' E 010°47'612.7
2017-Nov-10 06:00N 54°37' E 010°56'612.6
2017-Nov-10 05:30N 54°36' E 011°06'613.1
2017-Nov-10 05:00N 54°35' E 011°17'713.1
2017-Nov-10 04:30N 54°32' E 011°27'713.1
2017-Nov-10 04:00N 54°29' E 011°37'713.0
2017-Nov-10 03:29N 54°26' E 011°48'612.8
2017-Nov-10 03:00N 54°26' E 011°59'712.3
2017-Nov-10 02:28N 54°26' E 012°10'6312.0
2017-Nov-09 21:15N 55°00' E 013°42'412.8
2017-Nov-09 20:58N 55°01' E 013°48'912.6
2017-Nov-09 20:16N 55°05' E 014°02'312.5
2017-Nov-09 20:00N 55°06' E 014°07'612.2
2017-Nov-09 19:30N 55°07' E 014°18'612.4
2017-Nov-09 19:00N 55°11' E 014°26'712.2
2017-Nov-09 18:28N 55°15' E 014°35'612.4
2017-Nov-09 18:00N 55°19' E 014°42'5 9.3
2017-Nov-09 17:30N 55°18' E 014°50'612.4
2017-Nov-09 17:00N 55°21' E 015°00'713.6
2017-Nov-09 16:29N 55°24' E 015°12'613.7
2017-Nov-09 16:00N 55°27' E 015°22'1313.8
2017-Nov-09 15:04N 55°32' E 015°42'113.8
2017-Nov-09 15:00N 55°32' E 015°44'713.7
2017-Nov-09 14:30N 55°35' E 015°55'713.7
2017-Nov-09 14:00N 55°38' E 016°06'713.6
2017-Nov-09 13:30N 55°41' E 016°17'32313.4
2017-Nov-08 13:19N 59°37' E 023°11'413.8
2017-Nov-08 13:00N 59°38' E 023°19'713.8
2017-Nov-08 12:31N 59°40' E 023°32'714.0
2017-Nov-08 12:01N 59°42' E 023°46'713.6
2017-Nov-08 11:30N 59°43' E 023°59'712.2
2017-Nov-08 10:55N 59°45' E 024°13'512.1
2017-Nov-08 10:30N 59°47' E 024°22'612.3
2017-Nov-08 10:00N 59°47' E 024°34'612.3
2017-Nov-08 09:31N 59°48' E 024°46'612.1
2017-Nov-08 09:01N 59°50' E 024°58'612.0
2017-Nov-08 08:30N 59°52' E 025°09'612.0
2017-Nov-08 07:59N 59°53' E 025°22'610.7
2017-Nov-08 07:26N 59°57' E 025°30'511.6
2017-Nov-08 07:00N 60°02' E 025°33'5 9.9
2017-Nov-08 06:29N 60°06' E 025°38'  

Dump ship's entire track history